Time;durP1;ratioP1;P1;durP2;ratioP2;P2;SDS_P1;SDS_P2;PMS_P1;PMS_P2;Temp;Humidity;BMP_temperature;BMP_pressure;BME280_temperature;BME280_humidity;BME280_pressure;Samples;Min_cycle;Max_cycle;Signal;HPM_P1;HPM_P2
2022/06/15 00:00:09;;;;;;;8.40;4.82;;;13.30;99.90;;;;;;4992866;28;20033;-74
2022/06/15 00:02:34;;;;;;;10.40;4.40;;;13.30;99.90;;;;;;5008236;28;20080;-74
2022/06/15 00:05:00;;;;;;;8.35;4.68;;;13.30;99.90;;;;;;4990235;28;20125;-74
2022/06/15 00:07:25;;;;;;;13.48;5.15;;;13.30;99.90;;;;;;4994114;28;20038;-74
2022/06/15 00:09:51;;;;;;;9.40;4.72;;;13.30;99.90;;;;;;4991485;28;20037;-74
2022/06/15 00:12:17;;;;;;;9.00;4.47;;;13.30;99.90;;;;;;4974971;28;20104;-74
2022/06/15 00:14:42;;;;;;;9.15;4.70;;;13.20;99.90;;;;;;4991534;28;20081;-74
2022/06/15 00:17:08;;;;;;;8.88;4.70;;;13.20;99.90;;;;;;4989268;28;20037;-75
2022/06/15 00:19:34;;;;;;;13.13;4.75;;;13.20;99.90;;;;;;4990003;28;20484;-74
2022/06/15 00:22:00;;;;;;;8.63;4.85;;;13.20;99.90;;;;;;4989923;28;20046;-74
2022/06/15 00:24:25;;;;;;;8.32;4.45;;;13.20;99.90;;;;;;4990346;28;20045;-74
2022/06/15 00:26:51;;;;;;;8.80;5.03;;;13.10;99.90;;;;;;4992134;28;20041;-74
2022/06/15 00:29:17;;;;;;;7.50;4.57;;;13.10;99.90;;;;;;4991490;28;20045;-74
2022/06/15 00:31:42;;;;;;;8.60;4.70;;;13.10;99.90;;;;;;4988948;28;20053;-74
2022/06/15 00:34:08;;;;;;;6.53;4.25;;;13.00;99.90;;;;;;4975185;28;20045;-74
2022/06/15 00:36:34;;;;;;;8.25;4.20;;;13.00;99.90;;;;;;4990099;28;20125;-74
2022/06/15 00:39:00;;;;;;;5.60;3.60;;;13.00;99.90;;;;;;4991310;28;20038;-74
2022/06/15 00:41:30;;;;;;;6.57;4.15;;;12.90;99.90;;;;;;4989225;28;20053;-74
2022/06/15 00:44:21;;;;;;;9.93;4.13;;;12.80;99.90;;;;;;4987988;28;20030;-74
2022/06/15 00:47:11;;;;;;;5.13;3.75;;;12.80;99.90;;;;;;4973749;28;20099;-75
2022/06/15 00:49:56;;;;;;;7.63;3.88;;;12.70;99.90;;;;;;4987382;28;20041;-74
2022/06/15 00:52:43;;;;;;;7.88;4.32;;;12.60;99.90;;;;;;4989710;28;20464;-74
2022/06/15 00:55:18;;;;;;;7.85;4.53;;;12.60;99.90;;;;;;4991340;28;20095;-74
2022/06/15 00:57:44;;;;;;;6.90;4.97;;;12.60;99.90;;;;;;4991075;28;20040;-74
2022/06/15 01:00:12;;;;;;;6.18;4.60;;;12.60;99.90;;;;;;5005355;28;20037;-74
2022/06/15 01:02:39;;;;;;;8.32;5.53;;;12.60;99.90;;;;;;4986890;28;20038;-74
2022/06/15 01:05:09;;;;;;;6.13;4.57;;;12.50;99.90;;;;;;4985829;28;20041;-74
2022/06/15 01:07:55;;;;;;;6.68;4.65;;;12.50;99.90;;;;;;4988048;28;20034;-74
2022/06/15 01:10:42;;;;;;;5.68;4.10;;;12.50;99.90;;;;;;5002032;28;20181;-74
2022/06/15 01:13:26;;;;;;;8.57;4.75;;;12.40;99.90;;;;;;4986651;28;20049;-74
2022/06/15 01:16:12;;;;;;;11.45;5.40;;;12.40;99.90;;;;;;5004230;28;20056;-74
2022/06/15 01:18:54;;;;;;;7.68;4.90;;;12.40;99.90;;;;;;4973503;28;20137;-74
2022/06/15 01:21:34;;;;;;;8.13;5.28;;;12.40;99.90;;;;;;4973447;28;20128;-74
2022/06/15 01:24:42;;;;;;;9.13;5.60;;;12.40;99.90;;;;;;4990093;28;20041;-74
2022/06/15 01:27:32;;;;;;;7.70;5.13;;;12.30;99.90;;;;;;4988901;28;20065;-75
2022/06/15 01:30:18;;;;;;;8.82;5.50;;;12.30;99.90;;;;;;5055503;23;20061;-72
2022/06/15 01:33:08;;;;;;;8.25;5.13;;;12.30;99.90;;;;;;5025096;28;20566;-71
2022/06/15 01:35:45;;;;;;;3.35;2.75;;;12.30;99.90;;;;;;5022300;28;20071;-73
2022/06/15 01:38:21;;;;;;;6.20;4.43;;;12.20;99.90;;;;;;5025000;28;20115;-72
2022/06/15 01:41:23;;;;;;;9.88;4.40;;;12.20;99.90;;;;;;5024599;28;20480;-73
2022/06/15 01:44:05;;;;;;;7.37;4.97;;;12.10;99.90;;;;;;4994637;28;20135;-73
2022/06/15 01:46:32;;;;;;;9.98;5.65;;;12.10;99.90;;;;;;5023836;28;20029;-72
2022/06/15 01:48:59;;;;;;;6.55;5.68;;;12.10;99.90;;;;;;5024035;28;20095;-72
2022/06/15 01:51:33;;;;;;;7.57;5.75;;;12.10;99.90;;;;;;5025308;28;20037;-72
2022/06/15 01:54:18;;;;;;;11.77;6.15;;;12.10;99.90;;;;;;5024203;28;20033;-72
2022/06/15 01:56:47;;;;;;;11.00;5.85;;;12.00;99.90;;;;;;5024964;28;20037;-72
2022/06/15 01:59:35;;;;;;;12.32;5.80;;;12.00;99.90;;;;;;5021929;28;20124;-72
2022/06/15 02:02:06;;;;;;;10.15;5.82;;;12.00;99.90;;;;;;5023808;28;20069;-72
2022/06/15 02:04:55;;;;;;;5.82;5.20;;;11.90;99.90;;;;;;5024004;28;20124;-72
2022/06/15 02:07:31;;;;;;;9.88;5.88;;;11.90;99.90;;;;;;5024662;28;20049;-72
2022/06/15 02:10:20;;;;;;;10.50;6.20;;;11.80;99.90;;;;;;5023040;28;20049;-71
2022/06/15 02:13:12;;;;;;;8.50;5.10;;;11.90;99.90;;;;;;5008337;28;20133;-72
2022/06/15 02:15:43;;;;;;;8.25;5.78;;;11.90;99.90;;;;;;5020946;28;20099;-73
2022/06/15 02:18:14;;;;;;;8.35;5.80;;;11.80;99.90;;;;;;5026194;28;20028;-72
2022/06/15 02:20:46;;;;;;;7.63;6.20;;;11.80;99.90;;;;;;5023374;28;20051;-73
2022/06/15 02:23:15;;;;;;;10.00;7.03;;;11.80;99.90;;;;;;5021560;28;20056;-72
2022/06/15 02:25:44;;;;;;;8.52;5.97;;;11.80;99.90;;;;;;5021876;28;20041;-71
2022/06/15 02:28:11;;;;;;;5.30;4.18;;;11.80;99.90;;;;;;5023951;28;20037;-73
2022/06/15 02:30:37;;;;;;;6.05;4.28;;;11.80;99.90;;;;;;5024660;28;20052;-72
2022/06/15 02:33:33;;;;;;;6.68;5.78;;;11.70;99.90;;;;;;5024698;28;20041;-73
2022/06/15 02:36:01;;;;;;;8.50;6.15;;;11.60;99.90;;;;;;5019923;28;20057;-73
2022/06/15 02:38:28;;;;;;;9.25;5.85;;;11.70;99.90;;;;;;5023853;28;20045;-73
2022/06/15 02:40:54;;;;;;;11.98;6.60;;;11.70;99.90;;;;;;5022482;28;20056;-72
2022/06/15 02:43:24;;;;;;;11.60;6.05;;;11.70;99.90;;;;;;5026165;28;20032;-71
2022/06/15 02:45:51;;;;;;;9.63;6.72;;;11.70;99.90;;;;;;5023211;28;20041;-72
2022/06/15 02:48:17;;;;;;;7.38;5.18;;;11.70;99.90;;;;;;5040483;28;20037;-72
2022/06/15 02:51:22;;;;;;;7.45;5.40;;;11.70;99.90;;;;;;5023852;28;20048;-72
2022/06/15 02:53:51;;;;;;;9.73;6.80;;;11.60;99.90;;;;;;4983179;28;20061;-72
2022/06/15 02:56:19;;;;;;;8.52;6.50;;;11.60;99.90;;;;;;5022264;28;20041;-73
2022/06/15 02:58:47;;;;;;;11.15;7.10;;;11.60;99.90;;;;;;5022416;28;20038;-73
2022/06/15 03:01:13;;;;;;;10.93;6.15;;;11.60;99.90;;;;;;5040890;28;20037;-73
2022/06/15 03:03:40;;;;;;;8.50;6.03;;;11.60;99.90;;;;;;5024115;28;20041;-73
2022/06/15 03:06:15;;;;;;;8.48;6.25;;;11.60;99.90;;;;;;5021019;28;20049;-73
2022/06/15 03:08:41;;;;;;;6.93;5.95;;;11.60;99.90;;;;;;5007038;28;20044;-72
2022/06/15 03:11:07;;;;;;;6.13;5.15;;;11.60;99.90;;;;;;5022872;28;20036;-73
2022/06/15 03:13:33;;;;;;;7.60;5.65;;;11.50;99.90;;;;;;5023749;28;20053;-73
2022/06/15 03:16:00;;;;;;;4.55;3.30;;;11.50;99.90;;;;;;5023198;28;20029;-73
2022/06/15 03:18:27;;;;;;;5.95;4.90;;;11.40;99.90;;;;;;5024563;28;20087;-72
2022/06/15 03:20:57;;;;;;;9.68;6.00;;;11.40;99.90;;;;;;5023255;28;20073;-73
2022/06/15 03:23:23;;;;;;;5.65;4.75;;;11.30;99.90;;;;;;5023317;28;20048;-73
2022/06/15 03:25:54;;;;;;;8.80;6.50;;;11.30;99.90;;;;;;5026470;28;20099;-73
2022/06/15 03:28:20;;;;;;;8.95;6.10;;;11.30;99.90;;;;;;5027139;28;20037;-73
2022/06/15 03:30:45;;;;;;;9.25;5.78;;;11.30;99.90;;;;;;5027422;28;20045;-72
2022/06/15 03:33:11;;;;;;;10.75;5.68;;;11.40;99.90;;;;;;5027613;28;20140;-73
2022/06/15 03:35:37;;;;;;;7.53;5.55;;;11.30;99.90;;;;;;5026210;28;20072;-73
2022/06/15 03:38:03;;;;;;;7.47;6.13;;;11.30;99.90;;;;;;5027962;28;20045;-72
2022/06/15 03:40:29;;;;;;;8.15;6.00;;;11.30;99.90;;;;;;5026600;28;20037;-73
2022/06/15 03:42:55;;;;;;;9.90;6.97;;;11.30;99.90;;;;;;5027168;28;20072;-73
2022/06/15 03:45:21;;;;;;;9.23;6.20;;;11.40;99.90;;;;;;5025948;28;20033;-73
2022/06/15 03:47:46;;;;;;;8.95;6.88;;;11.40;99.90;;;;;;5026618;28;20485;-73
2022/06/15 03:50:12;;;;;;;12.32;7.03;;;11.40;99.90;;;;;;5027641;28;20091;-73
2022/06/15 03:52:38;;;;;;;9.18;6.75;;;11.40;99.90;;;;;;5030936;28;20045;-73
2022/06/15 03:55:04;;;;;;;7.50;6.35;;;11.40;99.90;;;;;;5026211;28;20133;-73
2022/06/15 03:57:31;;;;;;;10.07;6.70;;;11.40;99.90;;;;;;5025168;28;20041;-72
2022/06/15 03:59:57;;;;;;;8.95;7.53;;;11.40;99.90;;;;;;5027100;28;20139;-72
2022/06/15 04:02:22;;;;;;;9.05;6.68;;;11.50;99.90;;;;;;5027037;28;20132;-73
2022/06/15 04:04:48;;;;;;;15.45;8.00;;;11.50;99.90;;;;;;5026597;28;20152;-73
2022/06/15 04:08:34;;;;;;;8.45;6.72;;;11.50;99.90;;;;;;5027064;28;20033;-72
2022/06/15 04:09:59;;;;;;;8.35;5.95;;;11.50;99.90;;;;;;5042548;28;20087;-72
2022/06/15 04:12:25;;;;;;;7.45;6.22;;;11.50;99.90;;;;;;5024700;28;20045;-73
2022/06/15 04:14:51;;;;;;;10.68;6.82;;;11.50;99.90;;;;;;5026963;28;20037;-72
2022/06/15 04:17:18;;;;;;;10.85;6.70;;;11.60;99.90;;;;;;5025898;28;20045;-72
2022/06/15 04:19:43;;;;;;;9.80;7.30;;;11.60;99.90;;;;;;5024603;28;20041;-72
2022/06/15 04:22:09;;;;;;;10.93;7.43;;;11.60;99.90;;;;;;5025982;28;20407;-73
2022/06/15 04:24:36;;;;;;;11.27;7.07;;;11.60;99.90;;;;;;5025306;28;20052;-72
2022/06/15 04:27:02;;;;;;;9.95;7.10;;;11.60;99.90;;;;;;5026764;28;20131;-72
2022/06/15 04:29:28;;;;;;;11.18;7.20;;;11.60;99.90;;;;;;5025712;28;20037;-71
2022/06/15 04:31:54;;;;;;;11.35;7.25;;;11.60;99.90;;;;;;5026187;28;20052;-72
2022/06/15 04:34:19;;;;;;;8.18;6.90;;;11.70;99.90;;;;;;5027169;28;20067;-71
2022/06/15 04:36:46;;;;;;;10.90;6.85;;;11.70;99.90;;;;;;5025216;28;20051;-72
2022/06/15 04:39:13;;;;;;;10.75;7.03;;;11.70;99.90;;;;;;5026317;28;20065;-72
2022/06/15 04:41:40;;;;;;;9.90;7.22;;;11.80;99.90;;;;;;5024546;28;20072;-72
2022/06/15 04:44:08;;;;;;;12.73;7.95;;;11.80;99.90;;;;;;5027974;28;20136;-72
2022/06/15 04:46:34;;;;;;;9.50;6.88;;;11.70;99.90;;;;;;5023830;28;20044;-72
2022/06/15 04:49:00;;;;;;;10.23;7.22;;;11.90;99.90;;;;;;5027347;28;20048;-72
2022/06/15 04:51:29;;;;;;;10.27;7.50;;;11.90;99.90;;;;;;5025662;28;20040;-73
2022/06/15 04:53:56;;;;;;;12.07;8.70;;;11.90;99.90;;;;;;5025627;28;20030;-72
2022/06/15 04:56:23;;;;;;;12.57;7.97;;;12.00;99.90;;;;;;5024846;28;20087;-70
2022/06/15 04:58:49;;;;;;;11.52;8.20;;;12.00;99.90;;;;;;5025809;28;20041;-73
2022/06/15 05:01:15;;;;;;;15.35;9.13;;;12.00;99.90;;;;;;5022108;28;20048;-73
2022/06/15 05:03:41;;;;;;;13.43;8.95;;;12.10;99.90;;;;;;5025052;28;20069;-73
2022/06/15 05:06:32;;;;;;;13.20;8.95;;;12.10;99.90;;;;;;5023652;28;20199;-72
2022/06/15 05:08:58;;;;;;;10.48;8.60;;;12.20;99.90;;;;;;5013292;28;20052;-72
2022/06/15 05:11:26;;;;;;;15.77;8.95;;;12.20;99.90;;;;;;5022495;28;20029;-73
2022/06/15 05:13:53;;;;;;;12.73;9.27;;;12.30;99.90;;;;;;5023799;28;20042;-73
2022/06/15 05:16:19;;;;;;;13.43;9.55;;;12.40;99.90;;;;;;5041623;28;20044;-72
2022/06/15 05:18:45;;;;;;;16.55;9.57;;;12.40;99.90;;;;;;5022719;28;20045;-72
2022/06/15 05:21:10;;;;;;;14.30;9.43;;;12.50;99.90;;;;;;5024419;28;20045;-73
2022/06/15 05:23:36;;;;;;;15.82;9.63;;;12.50;99.90;;;;;;5023036;28;20041;-73
2022/06/15 05:26:03;;;;;;;17.50;10.02;;;12.60;99.90;;;;;;5021006;28;20053;-70
2022/06/15 05:28:29;;;;;;;13.13;9.98;;;12.70;99.90;;;;;;5024515;28;20036;-72
2022/06/15 05:31:06;;;;;;;16.73;10.00;;;12.80;99.90;;;;;;5007226;28;20044;-72
2022/06/15 05:33:34;;;;;;;15.00;10.05;;;12.90;99.90;;;;;;5008223;28;20136;-72
2022/06/15 05:36:02;;;;;;;13.23;9.07;;;13.00;99.90;;;;;;5020810;28;20040;-72
2022/06/15 05:38:28;;;;;;;12.85;8.90;;;13.10;99.90;;;;;;5021897;28;20041;-73
2022/06/15 05:40:54;;;;;;;13.07;8.50;;;13.10;99.90;;;;;;5018120;28;20116;-73
2022/06/15 05:43:19;;;;;;;15.63;8.38;;;13.20;99.90;;;;;;5031538;28;20555;-73
2022/06/15 05:45:45;;;;;;;13.40;8.85;;;13.40;99.90;;;;;;5026764;28;20095;-72
2022/06/15 05:48:10;;;;;;;15.70;8.40;;;13.50;99.90;;;;;;5025191;28;20076;-73
2022/06/15 05:50:36;;;;;;;13.75;8.10;;;13.50;99.90;;;;;;5025661;28;20053;-73
2022/06/15 05:53:02;;;;;;;12.32;8.50;;;13.60;99.90;;;;;;5017917;28;20045;-73
2022/06/15 05:55:27;;;;;;;13.23;8.68;;;13.70;99.90;;;;;;5026301;28;20048;-73
2022/06/15 05:57:53;;;;;;;11.45;7.47;;;13.80;99.90;;;;;;5028310;28;20045;-73
2022/06/15 06:00:19;;;;;;;12.63;8.00;;;13.90;99.90;;;;;;5012591;28;20128;-73
2022/06/15 06:02:45;;;;;;;13.40;7.57;;;14.00;99.90;;;;;;5026265;28;20074;-74
2022/06/15 06:05:11;;;;;;;13.50;7.45;;;14.10;99.90;;;;;;5017579;28;20087;-73
2022/06/15 06:07:36;;;;;;;12.65;6.82;;;14.20;99.90;;;;;;5029072;28;20563;-74
2022/06/15 06:10:03;;;;;;;15.75;6.63;;;14.30;99.90;;;;;;5025144;28;20044;-73
2022/06/15 06:12:29;;;;;;;10.20;6.85;;;14.30;99.90;;;;;;5006822;28;20053;-74
2022/06/15 06:14:56;;;;;;;9.80;6.28;;;14.40;99.90;;;;;;5020367;28;20040;-73
2022/06/15 06:17:22;;;;;;;10.82;5.97;;;14.50;99.90;;;;;;5023615;28;20072;-74
2022/06/15 06:19:48;;;;;;;12.75;6.32;;;14.60;99.90;;;;;;5021502;28;20045;-75
2022/06/15 06:22:14;;;;;;;9.38;6.10;;;14.80;99.90;;;;;;5021376;28;20056;-74
2022/06/15 06:24:40;;;;;;;10.02;6.00;;;14.90;99.90;;;;;;5020519;28;20037;-74
2022/06/15 06:27:07;;;;;;;15.18;5.55;;;15.00;99.90;;;;;;5023566;28;20047;-74
2022/06/15 06:29:33;;;;;;;14.52;5.78;;;15.10;99.90;;;;;;5020691;28;20538;-73
2022/06/15 06:32:00;;;;;;;13.52;6.07;;;15.20;99.90;;;;;;5024106;28;20041;-75
2022/06/15 06:34:26;;;;;;;11.63;5.70;;;15.30;99.90;;;;;;5022296;28;20081;-75
2022/06/15 06:36:52;;;;;;;9.52;5.60;;;15.50;99.90;;;;;;5022346;28;20041;-79
2022/06/15 06:39:21;;;;;;;10.70;5.63;;;15.60;99.90;;;;;;5024354;28;20045;-78
2022/06/15 06:41:47;;;;;;;13.05;5.47;;;15.70;99.90;;;;;;5011489;28;20091;-78
2022/06/15 06:44:13;;;;;;;9.75;5.70;;;15.90;99.90;;;;;;5028288;28;20045;-78
2022/06/15 06:46:43;;;;;;;9.05;5.25;;;16.00;99.90;;;;;;5030246;28;20041;-79
2022/06/15 06:49:09;;;;;;;8.85;4.95;;;16.20;99.90;;;;;;5011376;28;20029;-78
2022/06/15 06:51:36;;;;;;;7.07;4.60;;;16.30;99.90;;;;;;5008572;28;20093;-78
2022/06/15 06:54:03;;;;;;;8.43;4.55;;;16.40;99.90;;;;;;5027149;28;20052;-79
2022/06/15 06:56:29;;;;;;;8.50;4.93;;;16.50;99.90;;;;;;5026617;28;20087;-79
2022/06/15 06:58:54;;;;;;;10.65;4.70;;;16.60;99.90;;;;;;5021718;28;20648;-79
2022/06/15 07:01:20;;;;;;;10.85;4.70;;;16.70;99.90;;;;;;5023670;28;20038;-79
2022/06/15 07:03:47;;;;;;;7.13;4.60;;;16.80;99.90;;;;;;5007403;28;20053;-79
2022/06/15 07:06:13;;;;;;;9.15;4.25;;;16.90;99.90;;;;;;5027305;28;20061;-79
2022/06/15 07:08:39;;;;;;;9.90;4.07;;;17.00;99.90;;;;;;5023681;28;20037;-80
2022/06/15 07:11:15;;;;;;;10.52;4.05;;;17.10;99.90;;;;;;5008123;28;20029;-73
2022/06/15 07:13:41;;;;;;;9.10;3.63;;;17.20;99.90;;;;;;5020262;28;20042;-73
2022/06/15 07:16:10;;;;;;;10.35;3.55;;;17.40;99.90;;;;;;5026480;28;20048;-73
2022/06/15 07:18:36;;;;;;;7.80;3.28;;;17.60;99.90;;;;;;5021122;28;20041;-73
2022/06/15 07:21:08;;;;;;;6.45;2.67;;;17.70;99.90;;;;;;5027693;28;20041;-73
2022/06/15 07:23:34;;;;;;;9.88;3.30;;;17.80;99.90;;;;;;5029674;28;20065;-73
2022/06/15 07:26:10;;;;;;;10.73;3.13;;;18.00;99.90;;;;;;5028478;28;20548;-73
2022/06/15 07:28:38;;;;;;;12.40;2.92;;;18.10;99.90;;;;;;5027663;28;20033;-73
2022/06/15 07:31:05;;;;;;;6.97;3.10;;;18.20;99.90;;;;;;5029730;28;20152;-72
2022/06/15 07:33:32;;;;;;;7.72;3.30;;;18.40;99.90;;;;;;5026148;28;20435;-73
2022/06/15 07:35:58;;;;;;;9.18;3.00;;;18.50;99.90;;;;;;5030387;28;20530;-73
2022/06/15 07:38:24;;;;;;;8.27;2.97;;;18.60;99.90;;;;;;5030434;28;20072;-73
2022/06/15 07:40:50;;;;;;;7.10;3.05;;;18.80;99.90;;;;;;5024775;28;20041;-73
2022/06/15 07:43:16;;;;;;;8.82;2.55;;;18.90;99.90;;;;;;5027591;28;20436;-73
2022/06/15 07:45:43;;;;;;;7.40;2.83;;;19.10;99.90;;;;;;5029245;28;20407;-73
2022/06/15 07:50:54;;;;;;;5.70;2.55;;;19.30;99.90;;;;;;5026000;28;20073;-73
2022/06/15 07:53:20;;;;;;;7.53;2.53;;;19.50;99.90;;;;;;5025589;28;20037;-73
2022/06/15 07:55:47;;;;;;;5.82;2.20;;;19.60;99.90;;;;;;5027274;28;20443;-73
2022/06/15 07:58:15;;;;;;;8.90;2.45;;;19.70;99.90;;;;;;5014711;28;20411;-73
2022/06/15 08:00:43;;;;;;;5.95;2.20;;;19.80;99.90;;;;;;5028564;28;20403;-73
2022/06/15 08:03:10;;;;;;;8.48;2.35;;;19.90;99.90;;;;;;5027838;28;20504;-73
2022/06/15 08:05:40;;;;;;;7.40;2.15;;;20.10;99.90;;;;;;5024514;28;20068;-73
2022/06/15 08:08:13;;;;;;;6.53;2.30;;;20.10;99.90;;;;;;5029716;28;20124;-73
2022/06/15 08:10:39;;;;;;;4.93;1.60;;;20.20;99.90;;;;;;5024709;28;20041;-74
2022/06/15 08:13:06;;;;;;;6.30;2.30;;;20.30;99.90;;;;;;5028941;28;20056;-73
2022/06/15 08:15:33;;;;;;;5.50;1.92;;;20.40;99.90;;;;;;5029215;28;20059;-74
2022/06/15 08:18:08;;;;;;;7.85;1.80;;;20.50;99.90;;;;;;5047439;28;20045;-73
2022/06/15 08:20:44;;;;;;;8.45;1.80;;;20.70;99.90;;;;;;5024667;28;20052;-73
2022/06/15 08:23:15;;;;;;;6.85;1.90;;;20.70;99.80;;;;;;5029411;28;20053;-73
2022/06/15 08:25:46;;;;;;;4.20;1.63;;;20.70;98.80;;;;;;5005435;28;20387;-73
2022/06/15 08:28:15;;;;;;;3.60;1.67;;;20.80;98.80;;;;;;5033996;28;20052;-73
2022/06/15 08:30:41;;;;;;;3.55;1.50;;;21.00;96.30;;;;;;5029812;28;20042;-73
2022/06/15 08:33:09;;;;;;;4.32;1.30;;;21.10;95.50;;;;;;5030802;28;20041;-73
2022/06/15 08:35:38;;;;;;;4.35;1.50;;;21.40;90.90;;;;;;5029523;28;20045;-74
2022/06/15 08:38:10;;;;;;;3.97;1.60;;;21.50;86.20;;;;;;5026595;28;20566;-73
2022/06/15 08:40:53;;;;;;;;;;;21.50;90.00;;;;;;5031386;28;20140;-73
2022/06/15 08:44:01;;;;;;;4.43;1.63;;;21.50;90.00;;;;;;5024480;28;19925;-73
2022/06/15 08:46:58;;;;;;;7.63;2.20;;;21.70;94.30;;;;;;4981211;28;20151;-73
2022/06/15 08:49:59;;;;;;;7.03;1.90;;;21.80;92.10;;;;;;5025684;28;20048;-73
2022/06/15 08:52:41;;;;;;;6.35;2.00;;;21.70;91.20;;;;;;5027820;28;20481;-73
2022/06/15 08:55:18;;;;;;;;;;;21.40;90.40;;;;;;5031673;28;20041;-73
2022/06/15 08:58:02;;;;;;;5.75;1.63;;;21.30;90.90;;;;;;5029951;28;20024;-74
2022/06/15 09:00:34;;;;;;;4.18;1.75;;;21.30;91.30;;;;;;5027133;28;20069;-74
2022/06/15 09:03:37;;;;;;;3.47;1.52;;;21.40;90.60;;;;;;5030354;28;20061;-74
2022/06/15 09:06:19;;;;;;;5.72;1.88;;;21.40;89.20;;;;;;5028964;28;20087;-73
2022/06/15 09:09:08;;;;;;;2.17;1.40;;;21.50;87.20;;;;;;5029628;28;20041;-74
2022/06/15 09:11:49;;;;;;;5.57;1.67;;;21.80;93.60;;;;;;5044659;28;20041;-73
2022/06/15 09:14:46;;;;;;;5.68;1.50;;;22.00;92.20;;;;;;5043715;28;20144;-73
2022/06/15 09:17:19;;;;;;;4.35;1.75;;;22.30;79.50;;;;;;5017353;28;20049;-73
2022/06/15 09:19:48;;;;;;;4.82;1.40;;;22.40;80.50;;;;;;5029787;28;20041;-73
2022/06/15 09:22:24;;;;;;;4.40;1.42;;;22.40;81.90;;;;;;5022413;28;20079;-73
2022/06/15 09:24:56;;;;;;;6.43;1.65;;;22.30;85.60;;;;;;5025540;28;20045;-73
2022/06/15 09:27:29;;;;;;;5.45;1.50;;;22.30;84.00;;;;;;5030966;28;20102;-73
2022/06/15 09:30:07;;;;;;;5.55;1.55;;;22.30;79.60;;;;;;5028636;28;20045;-73
2022/06/15 09:32:39;;;;;;;3.28;1.60;;;22.40;77.30;;;;;;5016960;28;20053;-73
2022/06/15 09:35:16;;;;;;;3.85;1.55;;;22.60;72.90;;;;;;5030878;28;20096;-73
2022/06/15 09:37:46;;;;;;;6.07;1.55;;;22.80;74.70;;;;;;5031195;28;20045;-73
2022/06/15 09:40:12;;;;;;;6.55;1.50;;;23.00;75.00;;;;;;5028705;28;20163;-73
2022/06/15 09:42:46;;;;;;;3.35;1.30;;;23.10;74.60;;;;;;5030249;28;20068;-73
2022/06/15 09:45:17;;;;;;;5.50;1.73;;;23.40;73.50;;;;;;5027480;28;20045;-73
2022/06/15 09:47:55;;;;;;;5.75;1.48;;;23.60;71.20;;;;;;5027010;28;20049;-73
2022/06/15 09:51:01;;;;;;;2.58;1.35;;;23.90;70.10;;;;;;5019668;28;20085;-73
2022/06/15 09:53:30;;;;;;;3.47;1.40;;;24.20;67.10;;;;;;5028558;28;20095;-73
2022/06/15 09:56:04;;;;;;;3.17;1.60;;;24.30;68.90;;;;;;5028024;28;20088;-73
2022/06/15 09:59:00;;;;;;;8.30;1.80;;;24.50;66.30;;;;;;5028468;28;20037;-73
2022/06/15 10:01:39;;;;;;;6.15;1.80;;;24.70;68.40;;;;;;5020914;28;20045;-73
2022/06/15 10:04:09;;;;;;;4.03;1.40;;;24.70;67.30;;;;;;5043768;28;20040;-74
2022/06/15 10:06:59;;;;;;;34.72;3.33;;;24.80;65.30;;;;;;5025216;28;20048;-81
2022/06/15 10:09:28;;;;;;;18.45;2.50;;;24.80;63.60;;;;;;5025288;28;20040;-74
2022/06/15 10:12:56;;;;;;;4.63;1.60;;;24.80;62.70;;;;;;5020862;28;20056;-73
2022/06/15 10:14:43;;;;;;;3.72;1.40;;;24.90;61.90;;;;;;5022394;28;20045;-73
2022/06/15 10:17:30;;;;;;;7.40;1.58;;;25.10;61.10;;;;;;5007071;28;20061;-73
2022/06/15 10:19:57;;;;;;;3.55;1.25;;;25.20;62.10;;;;;;5007855;28;20060;-74
2022/06/15 10:22:39;;;;;;;4.72;1.70;;;25.30;61.20;;;;;;5027055;28;20040;-73
2022/06/15 10:25:06;;;;;;;4.78;1.40;;;25.40;62.60;;;;;;5024910;28;20499;-74
2022/06/15 10:27:41;;;;;;;7.07;1.60;;;25.60;61.30;;;;;;5019776;28;20041;-73
2022/06/15 10:30:06;;;;;;;7.88;1.90;;;25.70;58.70;;;;;;5021677;28;20037;-73
2022/06/15 10:32:33;;;;;;;7.22;1.67;;;25.90;62.00;;;;;;5018669;28;20041;-73
2022/06/15 10:35:15;;;;;;;4.63;1.73;;;25.90;61.00;;;;;;5024343;28;20037;-73
2022/06/15 10:37:47;;;;;;;4.60;1.60;;;25.90;58.50;;;;;;5022854;28;20042;-73
2022/06/15 10:40:29;;;;;;;2.80;1.40;;;25.70;60.40;;;;;;5020624;28;20068;-73
2022/06/15 10:43:06;;;;;;;;;;;25.70;59.80;;;;;;5023169;28;20029;-73
2022/06/15 10:45:37;;;;;;;3.55;1.40;;;25.60;58.30;;;;;;5040409;28;20549;-73
2022/06/15 10:48:36;;;;;;;6.10;1.58;;;25.60;57.80;;;;;;5024869;28;20391;-74
2022/06/15 10:51:08;;;;;;;5.95;1.90;;;25.90;59.40;;;;;;5022291;28;20063;-72
2022/06/15 10:53:49;;;;;;;3.13;1.52;;;26.10;58.70;;;;;;5024247;28;20686;-73
2022/06/15 11:02:13;;;;;;;4.85;1.60;;;26.40;55.70;;;;;;5022545;28;20041;-73
2022/06/15 11:04:46;;;;;;;3.83;1.40;;;26.60;55.10;;;;;;5023701;28;20921;-73
2022/06/15 11:07:20;;;;;;;2.95;1.40;;;26.60;56.50;;;;;;5016003;28;20041;-73
2022/06/15 11:09:54;;;;;;;5.53;1.60;;;26.70;54.80;;;;;;5023552;28;20487;-74
2022/06/15 11:12:22;;;;;;;5.55;1.60;;;26.80;55.30;;;;;;5020029;28;20406;-73
2022/06/15 11:14:57;;;;;;;4.63;1.60;;;26.80;55.30;;;;;;5025344;28;20403;-74
2022/06/15 11:20:42;;;;;;;7.53;1.70;;;26.40;56.10;;;;;;5023677;28;20069;-72
2022/06/15 11:23:18;;;;;;;3.47;1.55;;;26.60;56.50;;;;;;5022746;28;20307;-74
2022/06/15 11:28:58;;;;;;;;;;;26.90;54.90;;;;;;5027060;28;20077;-74
2022/06/15 11:31:27;;;;;;;3.53;1.60;;;26.70;56.10;;;;;;5022977;28;19920;-74
2022/06/15 11:34:01;;;;;;;4.93;1.73;;;26.40;54.70;;;;;;5023347;28;20052;-73
2022/06/15 11:36:50;;;;;;;7.25;1.70;;;26.30;56.40;;;;;;5025632;28;20041;-74
2022/06/15 11:39:30;;;;;;;3.95;1.60;;;26.40;54.80;;;;;;5023796;28;20069;-74
2022/06/15 11:41:57;;;;;;;6.65;1.80;;;26.50;54.80;;;;;;5023932;28;20507;-74
2022/06/15 11:44:27;;;;;;;4.20;1.50;;;26.60;55.50;;;;;;5029352;28;20496;-74
2022/06/15 11:47:31;;;;;;;5.93;1.70;;;26.80;56.10;;;;;;5030882;28;20518;-74
2022/06/15 11:50:21;;;;;;;4.18;1.60;;;27.10;54.50;;;;;;5025060;28;20041;-74
2022/06/15 11:53:11;;;;;;;2.95;1.60;;;27.30;54.40;;;;;;5025831;28;20052;-74
2022/06/15 11:55:52;;;;;;;3.20;1.60;;;27.40;50.70;;;;;;5025523;28;20411;-74
2022/06/15 11:58:33;;;;;;;4.35;1.60;;;27.40;52.80;;;;;;5026648;28;20097;-74
2022/06/15 12:01:05;;;;;;;5.22;1.60;;;27.20;52.90;;;;;;5027975;28;20038;-74
2022/06/15 12:03:42;;;;;;;8.77;1.70;;;27.00;53.20;;;;;;5026055;28;20183;-74
2022/06/15 12:06:26;;;;;;;5.35;1.85;;;26.80;53.30;;;;;;5013002;28;20060;-74
2022/06/15 12:08:57;;;;;;;5.78;1.63;;;26.90;53.20;;;;;;5025874;28;20037;-74
2022/06/15 12:15:04;;;;;;;4.20;1.50;;;27.10;52.50;;;;;;5027431;28;20041;-74
2022/06/15 12:17:43;;;;;;;3.40;1.50;;;27.20;52.80;;;;;;5024219;28;20037;-74
2022/06/15 12:21:01;;;;;;;2.58;1.23;;;27.40;51.20;;;;;;5028782;28;20095;-74
2022/06/15 12:23:56;;;;;;;5.93;1.55;;;27.60;52.50;;;;;;4981960;28;20049;-74
2022/06/15 12:26:28;;;;;;;3.00;1.27;;;27.80;49.80;;;;;;5024892;28;20052;-74
2022/06/15 12:29:25;;;;;;;3.85;1.60;;;27.80;50.40;;;;;;5024532;28;20037;-75
2022/06/15 12:35:03;;;;;;;5.70;1.60;;;28.00;50.20;;;;;;5024353;28;20045;-74
2022/06/15 12:37:35;;;;;;;5.30;1.63;;;28.20;49.00;;;;;;5023790;28;20045;-74
2022/06/15 12:40:16;;;;;;;3.22;1.60;;;28.30;50.40;;;;;;5027561;28;20112;-75
2022/06/15 12:42:45;;;;;;;3.00;1.48;;;28.50;50.60;;;;;;5026143;28;20045;-74
2022/06/15 12:45:22;;;;;;;2.63;1.30;;;28.70;49.80;;;;;;5009534;28;20029;-75
2022/06/15 12:47:55;;;;;;;3.47;1.27;;;28.80;47.30;;;;;;5026811;28;20048;-74
2022/06/15 12:50:44;;;;;;;5.75;1.40;;;28.70;48.20;;;;;;5024646;28;20042;-75
2022/06/15 12:53:22;;;;;;;5.25;1.40;;;28.60;48.10;;;;;;5027337;28;20532;-75
2022/06/15 12:56:15;;;;;;;3.78;1.42;;;28.80;48.30;;;;;;5028600;28;20045;-75
2022/06/15 12:59:15;;;;;;;6.10;1.65;;;29.00;48.80;;;;;;5029153;28;20120;-76
2022/06/15 13:01:50;;;;;;;5.32;1.85;;;29.10;48.60;;;;;;5014789;28;20041;-75
2022/06/15 13:04:39;;;;;;;4.90;1.48;;;29.10;47.20;;;;;;5023060;28;20099;-76
2022/06/15 13:07:35;;;;;;;4.03;1.45;;;29.10;47.80;;;;;;5024256;28;20438;-76
2022/06/15 13:10:24;;;;;;;3.70;1.40;;;29.10;48.50;;;;;;5032230;28;20052;-75
2022/06/15 13:13:51;;;;;;;3.85;1.35;;;29.10;47.40;;;;;;5031889;28;20128;-76
2022/06/15 13:17:16;;;;;;;6.43;1.80;;;29.30;48.40;;;;;;4994982;28;20511;-76
2022/06/15 13:20:27;;;;;;;5.80;1.30;;;29.40;49.60;;;;;;4988785;28;20213;-76
2022/06/15 13:23:24;;;;;;;3.03;1.30;;;29.60;47.00;;;;;;4993824;28;20415;-76
2022/06/15 13:25:52;;;;;;;5.13;1.17;;;29.70;46.20;;;;;;5026974;28;20129;-76
2022/06/15 13:28:23;;;;;;;2.92;1.40;;;29.70;45.30;;;;;;5026666;28;20132;-76
2022/06/15 13:30:52;;;;;;;4.55;1.20;;;29.80;45.40;;;;;;5022833;28;20052;-76
2022/06/15 13:33:18;;;;;;;4.50;1.42;;;29.90;45.60;;;;;;5024996;28;20041;-76
2022/06/15 13:36:12;;;;;;;3.10;1.40;;;29.90;45.00;;;;;;5023871;28;20053;-76
2022/06/15 13:39:01;;;;;;;4.40;1.20;;;29.90;45.30;;;;;;5022410;28;20048;-76